Time;durP1;ratioP1;P1;durP2;ratioP2;P2;SDS_P1;SDS_P2;PMS_P1;PMS_P2;Temp;Humidity;BMP_temperature;BMP_pressure;BME280_temperature;BME280_humidity;BME280_pressure;Samples;Min_cycle;Max_cycle;Signal;HPM_P1;HPM_P2
2023/12/23 00:01:08;;;;;;;;;;;;;;;6.67;100.00;100945.91;5020515;28;19920;-77
2023/12/23 00:03:34;;;;;;;;;;;;;;;6.59;100.00;100925.88;5026678;28;19920;-77
2023/12/23 00:05:59;;;;;;;;;;;;;;;6.60;100.00;100916.91;5028639;28;19939;-78
2023/12/23 00:08:24;;;;;;;;;;;;;;;6.59;100.00;100922.34;5006035;28;19970;-76
2023/12/23 00:10:49;;;;;;;;;;;;;;;6.64;100.00;100930.06;5030508;28;20439;-78
2023/12/23 00:13:14;;;;;;;;;;;;;;;6.56;100.00;100926.03;5022310;28;19921;-78
2023/12/23 00:15:40;;;;;;;;;;;;;;;6.56;100.00;100925.19;5005542;28;19925;-78
2023/12/23 00:18:05;;;;;;;;;;;;;;;6.47;100.00;100929.28;5025446;28;20294;-78
2023/12/23 00:20:30;;;;;;;;;;;;;;;6.51;100.00;100936.13;5010171;28;20497;-78
2023/12/23 00:22:56;;;;;;;;;;;;;;;6.50;100.00;100928.22;5020061;28;20449;-78
2023/12/23 00:25:21;;;;;;;;;;;;;;;6.48;100.00;100930.13;5021748;28;20275;-78
2023/12/23 00:27:46;;;;;;;;;;;;;;;6.47;100.00;100929.28;5022641;28;19921;-78
2023/12/23 00:30:13;;;;;;;;;;;;;;;6.50;100.00;100930.91;5007934;28;19956;-78
2023/12/23 00:32:40;;;;;;;;;;;;;;;6.53;100.00;100928.03;5013681;28;19978;-78
2023/12/23 00:35:05;;;;;;;;;;;;;;;6.51;100.00;100922.78;5025242;28;19973;-78
2023/12/23 00:37:30;;;;;;;;;;;;;;;6.51;100.00;100925.44;5028533;28;19943;-78
2023/12/23 00:39:56;;;;;;;;;;;;;;;6.47;100.00;100923.06;5032157;28;20445;-78
2023/12/23 00:42:21;;;;;;;;;;;;;;;6.51;100.00;100920.13;5028138;28;20478;-78
2023/12/23 00:44:46;;;;;;;;;;;;;;;6.54;100.00;100909.28;5007493;28;19970;-78
2023/12/23 00:47:11;;;;;;;;;;;;;;;6.48;100.00;100903.44;5025980;28;19971;-78
2023/12/23 00:49:37;;;;;;;;;;;;;;;6.51;100.00;100895.25;5013236;28;19920;-79
2023/12/23 00:52:02;;;;;;;;;;;;;;;6.43;100.00;100898.41;5028981;28;20235;-78
2023/12/23 00:54:27;;;;;;;;;;;;;;;6.46;100.00;100903.56;5024927;28;19943;-78
2023/12/23 00:56:52;;;;;;;;;;;;;;;6.48;100.00;100907.00;5024032;28;20602;-78
2023/12/23 00:59:17;;;;;;;;;;;;;;;6.49;100.00;100897.16;5029525;28;20359;-78
2023/12/23 01:01:43;;;;;;;;;;;;;;;6.49;100.00;100899.84;5032662;28;20411;-78
2023/12/23 01:04:08;;;;;;;;;;;;;;;6.50;100.00;100889.06;5013507;28;19932;-79
2023/12/23 01:06:34;;;;;;;;;;;;;;;6.47;100.00;100899.06;5034246;28;19917;-78
2023/12/23 01:08:59;;;;;;;;;;;;;;;6.47;100.00;100902.59;5012737;28;19924;-78
2023/12/23 01:11:24;;;;;;;;;;;;;;;6.50;100.00;100905.06;5006050;28;19925;-78
2023/12/23 01:13:50;;;;;;;;;;;;;;;6.45;100.00;100908.00;5029698;28;20248;-78
2023/12/23 01:16:15;;;;;;;;;;;;;;;6.49;100.00;100899.84;5024576;28;19944;-78
2023/12/23 01:18:40;;;;;;;;;;;;;;;6.43;100.00;100885.06;5025386;28;20275;-78
2023/12/23 01:21:05;;;;;;;;;;;;;;;6.46;100.00;100884.88;5013463;28;20280;-79
2023/12/23 01:23:30;;;;;;;;;;;;;;;6.39;100.00;100880.84;5033732;28;20410;-78
2023/12/23 01:25:56;;;;;;;;;;;;;;;6.47;100.00;100883.94;5026388;28;19947;-78
2023/12/23 01:28:21;;;;;;;;;;;;;;;6.43;100.00;100877.91;5013378;28;20361;-78
2023/12/23 01:30:46;;;;;;;;;;;;;;;6.43;100.00;100877.06;5021678;28;20354;-78
2023/12/23 01:33:11;;;;;;;;;;;;;;;6.56;100.00;100871.84;5025651;28;19976;-78
2023/12/23 01:35:39;;;;;;;;;;;;;;;6.54;100.00;100857.75;5031092;28;20024;-78
2023/12/23 01:38:04;;;;;;;;;;;;;;;6.54;100.00;100855.91;5026204;28;19921;-79
2023/12/23 01:40:29;;;;;;;;;;;;;;;6.52;100.00;100852.47;5028343;28;19975;-78
2023/12/23 01:42:54;;;;;;;;;;;;;;;6.48;100.00;100858.09;5010029;28;19925;-79
2023/12/23 01:45:20;;;;;;;;;;;;;;;6.48;100.00;100847.44;5005418;28;20293;-79
2023/12/23 01:47:46;;;;;;;;;;;;;;;6.52;100.00;100836.47;5017010;28;20429;-78
2023/12/23 01:50:11;;;;;;;;;;;;;;;6.51;100.00;100825.91;5029087;28;20015;-79
2023/12/23 01:52:38;;;;;;;;;;;;;;;6.48;100.00;100823.44;5032667;28;20011;-78
2023/12/23 01:55:04;;;;;;;;;;;;;;;6.44;100.00;100818.28;5009717;28;20294;-78
2023/12/23 01:57:29;;;;;;;;;;;;;;;6.44;100.00;100818.28;5007080;28;19947;-78
2023/12/23 01:59:54;;;;;;;;;;;;;;;6.43;100.00;100816.56;5008170;28;20332;-78
2023/12/23 02:02:19;;;;;;;;;;;;;;;6.43;100.00;100815.72;5029201;28;19963;-78
2023/12/23 02:04:45;;;;;;;;;;;;;;;6.41;100.00;100809.63;5035433;28;19917;-80
2023/12/23 02:07:10;;;;;;;;;;;;;;;6.44;100.00;100809.44;5031490;28;19925;-80
2023/12/23 02:09:35;;;;;;;;;;;;;;;6.40;100.00;100808.75;5037404;28;19925;-78
2023/12/23 02:12:27;;;;;;;;;;;;;;;6.38;100.00;100802.63;5021906;28;20015;-81
2023/12/23 02:14:55;;;;;;;;;;;;;;;6.37;100.00;100800.09;5029864;28;20391;-79
2023/12/23 02:17:20;;;;;;;;;;;;;;;6.36;100.00;100795.69;5032823;28;20378;-79
2023/12/23 02:19:45;;;;;;;;;;;;;;;6.38;100.00;100785.78;5029410;28;19929;-79
2023/12/23 02:22:10;;;;;;;;;;;;;;;6.43;100.00;100781.03;5018754;28;20009;-80
2023/12/23 02:24:35;;;;;;;;;;;;;;;6.35;100.00;100752.19;5016529;28;20015;-80
2023/12/23 02:27:05;;;;;;;;;;;;;;;6.63;100.00;100763.78;5014000;28;19929;-79
2023/12/23 02:29:30;;;;;;;;;;;;;;;6.68;100.00;100750.19;5030721;28;20520;-80
2023/12/23 02:31:55;;;;;;;;;;;;;;;6.74;100.00;100741.78;5025548;28;19929;-78
2023/12/23 02:34:20;;;;;;;;;;;;;;;6.59;100.00;100708.94;5024442;28;19925;-78
2023/12/23 02:36:45;;;;;;;;;;;;;;;6.77;100.00;100732.72;5032816;28;20347;-79
2023/12/23 02:39:11;;;;;;;;;;;;;;;6.85;100.00;100722.41;5029363;28;20458;-79
2023/12/23 02:41:36;;;;;;;;;;;;;;;6.87;100.00;100702.66;5013531;28;20374;-79
2023/12/23 02:44:02;;;;;;;;;;;;;;;7.01;100.00;100711.63;5016912;28;20337;-80
2023/12/23 02:46:27;;;;;;;;;;;;;;;7.15;100.00;100700.88;5030134;28;19998;-80
2023/12/23 02:48:52;;;;;;;;;;;;;;;7.39;100.00;100702.88;5025679;28;20046;-79
2023/12/23 02:51:17;;;;;;;;;;;;;;;7.51;100.00;100703.88;5026989;28;19929;-79
2023/12/23 02:53:42;;;;;;;;;;;;;;;7.52;100.00;100715.44;5011070;28;19972;-78
2023/12/23 02:56:08;;;;;;;;;;;;;;;7.62;100.00;100720.06;5025049;28;20011;-77
2023/12/23 02:58:33;;;;;;;;;;;;;;;7.73;100.00;100703.28;5022482;28;19927;-79
2023/12/23 03:00:58;;;;;;;;;;;;;;;7.73;100.00;100703.28;5025914;28;20414;-80
2023/12/23 03:03:24;;;;;;;;;;;;;;;7.78;100.00;100719.00;5024518;28;20351;-77
2023/12/23 03:05:49;;;;;;;;;;;;;;;7.76;100.00;100727.13;5028685;28;20585;-82
2023/12/23 03:08:14;;;;;;;;;;;;;;;7.81;100.00;100737.50;5024686;28;20390;-79
2023/12/23 03:10:39;;;;;;;;;;;;;;;7.71;100.00;100723.91;5011636;28;19982;-80
2023/12/23 03:13:06;;;;;;;;;;;;;;;7.67;100.00;100717.06;5024462;28;19924;-77
2023/12/23 03:15:31;;;;;;;;;;;;;;;7.68;100.00;100710.75;5028928;28;19932;-79
2023/12/23 03:17:56;;;;;;;;;;;;;;;7.67;100.00;100684.16;5014028;28;19921;-78
2023/12/23 03:20:23;;;;;;;;;;;;;;;7.60;100.00;100699.72;5028849;28;19960;-79
2023/12/23 03:22:48;;;;;;;;;;;;;;;7.68;100.00;100697.38;5009959;28;19924;-79
2023/12/23 03:25:13;;;;;;;;;;;;;;;7.66;100.00;100691.28;5023706;28;19952;-79
2023/12/23 03:27:38;;;;;;;;;;;;;;;7.67;100.00;100685.00;5023191;28;19956;-81
2023/12/23 03:30:04;;;;;;;;;;;;;;;7.73;100.00;100697.94;5026385;28;19921;-80
2023/12/23 03:32:29;;;;;;;;;;;;;;;7.69;100.00;100684.88;5025772;28;19944;-78
2023/12/23 03:34:54;;;;;;;;;;;;;;;7.74;100.00;100685.41;5029568;28;20457;-79
2023/12/23 03:37:20;;;;;;;;;;;;;;;7.74;100.00;100693.44;5028506;28;19982;-79
2023/12/23 03:39:45;;;;;;;;;;;;;;;7.76;100.00;100686.16;5008931;28;20402;-77
2023/12/23 03:42:10;;;;;;;;;;;;;;;7.79;100.00;100688.63;5023113;28;20293;-77
2023/12/23 03:44:36;;;;;;;;;;;;;;;7.78;100.00;100687.78;5024864;28;19921;-78
2023/12/23 03:47:01;;;;;;;;;;;;;;;7.70;100.00;100668.75;5025305;28;19932;-76
2023/12/23 03:49:27;;;;;;;;;;;;;;;7.89;100.00;100688.84;5022860;28;20014;-77
2023/12/23 03:51:52;;;;;;;;;;;;;;;7.91;100.00;100687.81;5028179;28;19925;-78
2023/12/23 03:54:17;;;;;;;;;;;;;;;7.92;100.00;100694.88;5027000;28;19960;-76
2023/12/23 03:56:42;;;;;;;;;;;;;;;7.97;100.00;100691.88;5012121;28;19959;-80
2023/12/23 03:59:07;;;;;;;;;;;;;;;8.07;100.00;100687.59;5008926;28;19935;-80
2023/12/23 04:01:33;;;;;;;;;;;;;;;8.04;100.00;100685.13;5008936;28;19925;-79
2023/12/23 04:03:58;;;;;;;;;;;;;;;8.09;100.00;100695.50;5008191;28;19913;-77
2023/12/23 04:06:23;;;;;;;;;;;;;;;8.08;100.00;100683.94;5023413;28;19924;-78
2023/12/23 04:08:49;;;;;;;;;;;;;;;8.10;100.00;100684.69;5024945;28;19926;-78
2023/12/23 04:11:14;;;;;;;;;;;;;;;8.15;100.00;100680.84;5012988;28;20451;-81
2023/12/23 04:13:39;;;;;;;;;;;;;;;8.25;100.00;100700.63;5022063;28;20458;-76
2023/12/23 04:16:04;;;;;;;;;;;;;;;8.31;100.00;100694.84;5012045;28;20008;-79
2023/12/23 04:18:29;;;;;;;;;;;;;;;8.28;100.00;100678.16;5019135;28;19965;-77
2023/12/23 04:20:55;;;;;;;;;;;;;;;8.28;100.00;100689.72;5013755;28;20455;-81
2023/12/23 04:23:20;;;;;;;;;;;;;;;8.31;100.00;100692.19;5007521;28;20407;-78
2023/12/23 04:25:45;;;;;;;;;;;;;;;8.36;100.00;100663.25;5004410;28;19929;-78
2023/12/23 04:28:11;;;;;;;;;;;;;;;8.37;100.00;100666.81;5013341;28;19972;-79
2023/12/23 04:30:37;;;;;;;;;;;;;;;8.36;100.00;100660.59;5021384;28;19909;-78
2023/12/23 04:33:02;;;;;;;;;;;;;;;8.39;100.00;100668.41;5021597;28;19959;-78
2023/12/23 04:35:27;;;;;;;;;;;;;;;8.41;100.00;100658.44;5019329;28;19979;-78
2023/12/23 04:37:52;;;;;;;;;;;;;;;8.44;100.00;100660.06;5007276;28;19931;-79
2023/12/23 04:40:18;;;;;;;;;;;;;;;8.46;100.00;100667.97;5012064;28;19961;-77
2023/12/23 04:42:43;;;;;;;;;;;;;;;8.40;100.00;100662.09;5026369;28;20129;-78
2023/12/23 04:45:09;;;;;;;;;;;;;;;8.43;100.00;100658.34;5022235;28;19951;-78
2023/12/23 04:47:34;;;;;;;;;;;;;;;8.48;100.00;100672.25;5022471;28;19943;-78
2023/12/23 04:49:59;;;;;;;;;;;;;;;8.54;100.00;100665.63;5012321;28;19925;-78
2023/12/23 04:52:25;;;;;;;;;;;;;;;8.49;100.00;100676.66;5006614;28;19931;-78
2023/12/23 04:54:50;;;;;;;;;;;;;;;8.50;100.00;100656.97;5011992;28;19921;-77
2023/12/23 04:57:15;;;;;;;;;;;;;;;8.45;100.00;100666.25;5008695;28;19944;-79
2023/12/23 04:59:40;;;;;;;;;;;;;;;8.46;100.00;100650.09;5009555;28;19937;-79
2023/12/23 05:02:06;;;;;;;;;;;;;;;8.44;100.00;100649.34;5007672;28;19971;-80
2023/12/23 05:04:31;;;;;;;;;;;;;;;8.48;100.00;100649.97;5008170;28;19924;-79
2023/12/23 05:06:59;;;;;;;;;;;;;;;8.54;100.00;100657.59;5009982;28;20958;-78
2023/12/23 05:09:24;;;;;;;;;;;;;;;8.59;100.00;100659.94;5019912;28;19921;-79
2023/12/23 05:11:49;;;;;;;;;;;;;;;8.58;100.00;100656.44;5021599;28;20152;-76
2023/12/23 05:14:15;;;;;;;;;;;;;;;8.60;100.00;100650.94;5022746;28;20022;-78
2023/12/23 05:16:40;;;;;;;;;;;;;;;8.55;100.00;100656.66;5023281;28;19927;-78
2023/12/23 05:19:05;;;;;;;;;;;;;;;8.61;100.00;100636.59;5009980;28;19960;-78
2023/12/23 05:21:30;;;;;;;;;;;;;;;8.60;100.00;100630.41;5014215;28;19995;-79
2023/12/23 05:23:55;;;;;;;;;;;;;;;8.52;100.00;100643.47;5018065;28;19916;-78
2023/12/23 05:26:21;;;;;;;;;;;;;;;8.51;100.00;100642.59;5022609;28;20358;-77
2023/12/23 05:28:46;;;;;;;;;;;;;;;8.55;100.00;100635.25;5019923;28;20308;-77
2023/12/23 05:31:11;;;;;;;;;;;;;;;8.51;100.00;100631.91;5009618;28;20382;-76
2023/12/23 05:33:36;;;;;;;;;;;;;;;8.55;100.00;100619.19;5010255;28;19921;-77
2023/12/23 05:36:02;;;;;;;;;;;;;;;8.60;100.00;100627.72;5008236;28;19976;-79
2023/12/23 05:38:27;;;;;;;;;;;;;;;8.60;100.00;100618.84;5021259;28;20059;-77
2023/12/23 05:40:52;;;;;;;;;;;;;;;8.62;100.00;100616.91;5010100;28;19975;-77
2023/12/23 05:43:17;;;;;;;;;;;;;;;8.68;100.00;100627.16;5010030;28;20015;-75
2023/12/23 05:45:42;;;;;;;;;;;;;;;8.65;100.00;100638.09;5023562;28;19972;-77
2023/12/23 05:48:08;;;;;;;;;;;;;;;8.63;100.00;100598.03;5009604;28;20035;-77
2023/12/23 05:50:33;;;;;;;;;;;;;;;8.64;100.00;100631.88;5023614;28;19932;-75
2023/12/23 05:52:58;;;;;;;;;;;;;;;8.58;100.00;100632.34;5021527;28;19925;-74
2023/12/23 05:55:23;;;;;;;;;;;;;;;8.60;100.00;100613.47;5027521;28;19924;-77
2023/12/23 05:57:49;;;;;;;;;;;;;;;8.53;100.00;100627.31;5008869;28;19964;-78
2023/12/23 06:00:14;;;;;;;;;;;;;;;8.53;100.00;100635.34;5010589;28;19935;-79
2023/12/23 06:02:39;;;;;;;;;;;;;;;8.59;100.00;100612.63;5024102;28;19932;-78
2023/12/23 06:05:04;;;;;;;;;;;;;;;8.58;100.00;100618.97;5022525;28;20299;-76
2023/12/23 06:07:30;;;;;;;;;;;;;;;8.53;100.00;100629.13;5012171;28;20004;-77
2023/12/23 06:09:55;;;;;;;;;;;;;;;8.51;100.00;100615.84;5023838;28;19948;-78
2023/12/23 06:12:20;;;;;;;;;;;;;;;8.50;100.00;100619.50;5009334;28;19920;-79
2023/12/23 06:14:45;;;;;;;;;;;;;;;8.48;100.00;100624.09;5025681;28;19960;-80
2023/12/23 06:17:10;;;;;;;;;;;;;;;8.36;100.00;100625.81;5011130;28;19921;-76
2023/12/23 06:19:36;;;;;;;;;;;;;;;8.32;100.00;100634.19;5031452;28;19924;-78
2023/12/23 06:22:01;;;;;;;;;;;;;;;8.16;100.00;100635.28;5031342;28;19968;-78
2023/12/23 06:24:26;;;;;;;;;;;;;;;8.13;100.00;100618.56;5030385;28;20327;-79
2023/12/23 06:26:52;;;;;;;;;;;;;;;8.16;100.00;100623.72;5027227;28;20019;-78
2023/12/23 06:29:17;;;;;;;;;;;;;;;8.06;100.00;100623.53;5032152;28;19924;-76
2023/12/23 06:31:42;;;;;;;;;;;;;;;8.04;100.00;100618.28;5010977;28;19925;-76
2023/12/23 06:34:07;;;;;;;;;;;;;;;8.05;100.00;100627.16;5030259;28;19948;-77
2023/12/23 06:36:33;;;;;;;;;;;;;;;8.02;100.00;100625.56;5014299;28;20058;-77
2023/12/23 06:38:58;;;;;;;;;;;;;;;8.04;100.00;100630.78;5027936;28;20274;-79
2023/12/23 06:41:23;;;;;;;;;;;;;;;8.05;100.00;100633.38;5031562;28;20059;-77
2023/12/23 06:43:48;;;;;;;;;;;;;;;8.08;100.00;100635.81;5013588;28;19964;-77
2023/12/23 06:46:13;;;;;;;;;;;;;;;8.06;100.00;100618.16;5010059;28;19921;-77
2023/12/23 06:48:39;;;;;;;;;;;;;;;8.10;100.00;100625.00;5024430;28;20054;-79
2023/12/23 06:51:04;;;;;;;;;;;;;;;8.09;100.00;100624.16;5014311;28;20058;-79
2023/12/23 06:53:29;;;;;;;;;;;;;;;8.05;100.00;100629.81;5024821;28;19924;-79
2023/12/23 06:55:55;;;;;;;;;;;;;;;8.05;100.00;100614.66;5028233;28;19920;-77
2023/12/23 06:58:21;;;;;;;;;;;;;;;8.03;100.00;100616.56;5015437;28;19966;-78
2023/12/23 07:00:47;;;;;;;;;;;;;;;8.03;100.00;100611.22;5025365;28;20306;-76
2023/12/23 07:03:12;;;;;;;;;;;;;;;8.08;100.00;100601.03;5021455;28;19921;-80
2023/12/23 07:05:37;;;;;;;;;;;;;;;8.09;100.00;100605.44;5022006;28;21878;-79
2023/12/23 07:08:03;;;;;;;;;;;;;;;8.04;100.00;100601.38;5025640;28;19913;-75
2023/12/23 07:10:28;;;;;;;;;;;;;;;8.03;100.00;100597.00;5008977;28;20357;-76
2023/12/23 07:12:53;;;;;;;;;;;;;;;8.02;100.00;100597.94;5007629;28;20351;-76
2023/12/23 07:15:18;;;;;;;;;;;;;;;8.12;100.00;100604.38;5011846;28;20762;-76
2023/12/23 07:17:43;;;;;;;;;;;;;;;8.03;100.00;100597.88;5011339;28;20367;-76
2023/12/23 07:20:09;;;;;;;;;;;;;;;8.10;100.00;100615.16;5025493;28;19982;-76
2023/12/23 07:22:34;;;;;;;;;;;;;;;8.09;100.00;100618.78;5026069;28;19968;-77
2023/12/23 07:24:59;;;;;;;;;;;;;;;8.10;100.00;100607.13;5022079;28;19929;-77
2023/12/23 07:27:24;;;;;;;;;;;;;;;8.06;100.00;100607.47;5024793;28;19931;-76
2023/12/23 07:29:50;;;;;;;;;;;;;;;8.27;100.00;100623.81;5020687;28;19924;-76
2023/12/23 07:32:15;;;;;;;;;;;;;;;8.33;100.00;100618.03;5024113;28;19942;-76
2023/12/23 07:34:40;;;;;;;;;;;;;;;8.24;100.00;100630.22;5025713;28;19932;-78
2023/12/23 07:37:05;;;;;;;;;;;;;;;8.36;100.00;100636.50;5022198;28;19925;-78
2023/12/23 07:39:31;;;;;;;;;;;;;;;8.29;100.00;100640.63;5006346;28;21842;-75
2023/12/23 07:41:57;;;;;;;;;;;;;;;8.36;100.00;100652.56;5024254;28;19968;-75
2023/12/23 07:44:23;;;;;;;;;;;;;;;8.45;100.00;100642.19;5029140;28;20506;-76
2023/12/23 07:46:49;;;;;;;;;;;;;;;8.47;100.00;100646.47;5021178;28;20011;-78
2023/12/23 07:49:14;;;;;;;;;;;;;;;8.48;100.00;100647.31;5011304;28;19924;-77
2023/12/23 07:51:39;;;;;;;;;;;;;;;8.54;100.00;100653.09;5024954;28;19946;-78
2023/12/23 07:54:04;;;;;;;;;;;;;;;8.58;100.00;100645.72;5011408;28;19928;-76
2023/12/23 07:56:30;;;;;;;;;;;;;;;8.76;100.00;100646.16;5023494;28;20310;-76
2023/12/23 07:58:57;;;;;;;;;;;;;;;8.70;100.00;100652.84;5024141;28;20495;-75
2023/12/23 08:01:22;;;;;;;;;;;;;;;8.63;100.00;100658.75;5006829;28;19928;-77
2023/12/23 08:03:48;;;;;;;;;;;;;;;8.63;100.00;100646.22;5005896;28;19921;-77
2023/12/23 08:06:15;;;;;;;;;;;;;;;8.79;100.00;100653.97;5018477;28;19957;-78
2023/12/23 08:08:40;;;;;;;;;;;;;;;8.73;100.00;100664.28;5026297;28;20219;-78
2023/12/23 08:11:05;;;;;;;;;;;;;;;8.84;100.00;100648.31;5022814;28;20151;-76
2023/12/23 08:13:30;;;;;;;;;;;;;;;8.81;100.00;100646.69;5023215;28;19956;-78
2023/12/23 08:15:55;;;;;;;;;;;;;;;8.82;100.00;100660.94;5028231;28;20023;-76
2023/12/23 08:18:21;;;;;;;;;;;;;;;8.79;100.00;100656.66;5021720;28;20213;-78
2023/12/23 08:20:46;;;;;;;;;;;;;;;8.87;100.00;100641.88;5020382;28;20336;-76
2023/12/23 08:23:11;;;;;;;;;;;;;;;8.90;100.00;100639.81;5022245;28;20269;-75
2023/12/23 08:25:37;;;;;;;;;;;;;;;8.84;100.00;100659.03;5020241;28;20024;-77
2023/12/23 08:28:02;;;;;;;;;;;;;;;8.98;100.00;100647.28;5004082;28;21673;-76
2023/12/23 08:30:27;;;;;;;;;;;;;;;8.90;100.00;100650.50;5022193;28;20203;-78
2023/12/23 08:32:52;;;;;;;;;;;;;;;8.96;100.00;100655.41;5018937;28;20311;-76
2023/12/23 08:35:17;;;;;;;;;;;;;;;8.95;100.00;100651.03;5020160;28;19960;-79
2023/12/23 08:37:43;;;;;;;;;;;;;;;9.03;100.00;100658.50;5019828;28;19963;-77
2023/12/23 08:40:08;;;;;;;;;;;;;;;8.96;100.00;100665.28;5019081;28;19929;-77
2023/12/23 08:42:34;;;;;;;;;;;;;;;9.04;100.00;100668.22;5018867;28;19925;-77
2023/12/23 08:44:59;;;;;;;;;;;;;;;9.03;100.00;100671.03;5023077;28;19930;-75
2023/12/23 08:47:24;;;;;;;;;;;;;;;9.03;100.00;100666.53;5023598;28;20095;-77
2023/12/23 08:49:49;;;;;;;;;;;;;;;9.06;100.00;100681.53;5024757;28;20042;-78
2023/12/23 08:52:15;;;;;;;;;;;;;;;9.08;100.00;100672.41;5026829;28;19917;-76
2023/12/23 08:54:40;;;;;;;;;;;;;;;9.12;100.00;100668.53;5029164;28;19929;-76
2023/12/23 08:57:05;;;;;;;;;;;;;;;9.14;100.00;100679.13;5022702;28;19924;-76
2023/12/23 08:59:30;;;;;;;;;;;;;;;9.07;100.00;100672.53;5025010;28;19924;-78
2023/12/23 09:01:56;;;;;;;;;;;;;;;9.15;100.00;100672.78;5018913;28;19925;-78
2023/12/23 09:04:21;;;;;;;;;;;;;;;9.13;100.00;100664.88;5028291;28;19920;-74
2023/12/23 09:06:46;;;;;;;;;;;;;;;9.14;100.00;100671.94;5023785;28;19924;-77
2023/12/23 09:09:11;;;;;;;;;;;;;;;9.12;100.00;100697.16;5026212;28;19944;-76
2023/12/23 09:11:40;;;;;;;;;;;;;;;9.10;100.00;100696.41;5018512;28;19921;-78
2023/12/23 09:14:06;;;;;;;;;;;;;;;9.17;100.00;100703.00;5025520;28;20401;-78
2023/12/23 09:16:31;;;;;;;;;;;;;;;9.17;100.00;100694.13;5024019;28;19921;-77
2023/12/23 09:18:56;;;;;;;;;;;;;;;9.04;100.00;100700.38;5026247;28;19920;-78
2023/12/23 09:21:21;;;;;;;;;;;;;;;9.14;100.00;100708.56;5009973;28;19971;-77
2023/12/23 09:23:47;;;;;;;;;;;;;;;9.10;100.00;100712.47;5031219;28;20053;-80
2023/12/23 09:26:13;;;;;;;;;;;;;;;9.09;100.00;100706.25;5004833;28;20214;-77
2023/12/23 09:28:38;;;;;;;;;;;;;;;9.18;100.00;100701.19;5023685;28;19916;-76
2023/12/23 09:31:03;;;;;;;;;;;;;;;9.16;100.00;100703.97;5003503;28;20146;-78
2023/12/23 09:33:28;;;;;;;;;;;;;;;9.24;100.00;100712.28;5021484;28;19924;-77
2023/12/23 09:35:54;;;;;;;;;;;;;;;9.23;100.00;100699.03;5023906;28;19921;-77
2023/12/23 09:38:19;;;;;;;;;;;;;;;9.17;100.00;100713.72;5029486;28;19925;-76
2023/12/23 09:40:44;;;;;;;;;;;;;;;9.20;100.00;100701.94;5027227;28;19932;-76
2023/12/23 09:43:09;;;;;;;;;;;;;;;9.18;100.00;100710.06;5024395;28;20432;-76
2023/12/23 09:45:36;;;;;;;;;;;;;;;9.21;100.00;100723.25;5024814;28;20145;-75
2023/12/23 09:48:01;;;;;;;;;;;;;;;9.12;100.00;100730.13;5029430;28;19931;-78
2023/12/23 09:50:26;;;;;;;;;;;;;;;9.17;100.00;100720.91;5026892;28;20115;-77
2023/12/23 09:52:52;;;;;;;;;;;;;;;9.16;100.00;100733.44;5027802;28;20370;-76
2023/12/23 09:55:17;;;;;;;;;;;;;;;9.22;100.00;100737.50;5026140;28;20347;-78
2023/12/23 09:57:42;;;;;;;;;;;;;;;9.33;100.00;100726.00;5025571;28;19917;-75
2023/12/23 10:00:08;;;;;;;;;;;;;;;9.20;100.00;100723.38;5022653;28;20005;-78
2023/12/23 10:02:33;;;;;;;;;;;;;;;9.19;100.00;100722.50;5022987;28;19921;-76
2023/12/23 10:04:58;;;;;;;;;;;;;;;9.25;100.00;100738.13;5026439;28;19921;-77
2023/12/23 10:07:23;;;;;;;;;;;;;;;9.32;100.00;100741.19;5028381;28;19921;-78
2023/12/23 10:09:49;;;;;;;;;;;;;;;9.24;100.00;100732.88;5023988;28;19921;-79
2023/12/23 10:12:15;;;;;;;;;;;;;;;9.22;100.00;100724.94;5030275;28;19921;-76
2023/12/23 10:14:41;;;;;;;;;;;;;;;9.26;100.00;100723.75;5024583;28;20048;-75
2023/12/23 10:17:06;;;;;;;;;;;;;;;9.30;100.00;100719.00;5031204;28;19924;-76
2023/12/23 10:19:31;;;;;;;;;;;;;;;9.23;100.00;100742.72;5024649;28;19932;-78
2023/12/23 10:21:57;;;;;;;;;;;;;;;9.33;100.00;100734.03;5008640;28;20652;-75
2023/12/23 10:24:22;;;;;;;;;;;;;;;9.29;100.00;100728.03;5022895;28;20295;-74
2023/12/23 10:26:47;;;;;;;;;;;;;;;9.34;100.00;100735.75;5030163;28;19928;-76
2023/12/23 10:29:12;;;;;;;;;;;;;;;9.19;100.00;100725.16;5025240;28;20004;-79
2023/12/23 10:31:38;;;;;;;;;;;;;;;9.38;100.00;100716.63;5025796;28;19960;-76
2023/12/23 10:34:06;;;;;;;;;;;;;;;9.39;100.00;100733.56;5032034;28;20004;-75
2023/12/23 10:36:31;;;;;;;;;;;;;;;9.39;100.00;100737.09;5014544;28;19955;-78
2023/12/23 10:38:58;;;;;;;;;;;;;;;9.37;100.00;100733.66;5030259;28;20363;-76
2023/12/23 10:41:34;;;;;;;;;;;;;;;9.38;100.00;100721.16;5017340;28;20267;-77
2023/12/23 10:43:59;;;;;;;;;;;;;;;9.51;100.00;100732.63;5013836;28;20003;-74
2023/12/23 10:46:25;;;;;;;;;;;;;;;9.51;100.00;100715.72;5015129;28;20338;-77
2023/12/23 10:48:51;;;;;;;;;;;;;;;9.48;100.00;100716.78;5027195;28;19920;-76
2023/12/23 10:51:16;;;;;;;;;;;;;;;9.58;100.00;100699.06;5030132;28;19921;-75
2023/12/23 10:53:41;;;;;;;;;;;;;;;9.56;100.00;100697.44;5023679;28;19917;-77
2023/12/23 10:56:08;;;;;;;;;;;;;;;9.57;100.00;100724.16;5017791;28;20318;-76
2023/12/23 10:58:33;;;;;;;;;;;;;;;9.60;100.00;100733.78;5029534;28;19928;-78
2023/12/23 11:00:59;;;;;;;;;;;;;;;9.66;100.00;100727.94;5007284;28;19925;-76
2023/12/23 11:03:24;;;;;;;;;;;;;;;9.70;100.00;100731.25;5029368;28;19921;-77
2023/12/23 11:05:49;;;;;;;;;;;;;;;9.66;100.00;100735.16;5011010;28;20729;-75
2023/12/23 11:08:15;;;;;;;;;;;;;;;9.62;100.00;100745.22;5027053;28;19966;-75
2023/12/23 11:10:41;;;;;;;;;;;;;;;9.60;100.00;100747.16;5026881;28;19925;-75
2023/12/23 11:13:07;;;;;;;;;;;;;;;9.71;100.00;100741.88;5029717;28;19986;-78
2023/12/23 11:15:32;;;;;;;;;;;;;;;9.63;100.00;100746.09;5028905;28;19923;-75
2023/12/23 11:17:57;;;;;;;;;;;;;;;9.71;100.00;100744.53;5026585;28;20295;-76
2023/12/23 11:20:31;;;;;;;;;;;;;;;9.69;100.00;100751.84;5028681;28;20317;-76
2023/12/23 11:22:59;;;;;;;;;;;;;;;9.71;100.00;100741.88;5032410;28;19975;-76
2023/12/23 11:25:42;;;;;;;;;;;;;;;9.75;100.00;100739.78;5014076;28;19964;-74
2023/12/23 11:28:11;;;;;;;;;;;;;;;9.76;100.00;100720.06;5029710;28;20023;-75
2023/12/23 11:30:49;;;;;;;;;;;;;;;9.72;100.00;100743.56;5027390;28;20441;-79
2023/12/23 11:33:14;;;;;;;;;;;;;;;9.75;100.00;100742.47;5030780;28;20036;-78
2023/12/23 11:35:58;;;;;;;;;;;;;;;9.75;100.00;100742.47;5031095;28;20482;-75
2023/12/23 11:38:27;;;;;;;;;;;;;;;9.81;100.00;100744.69;5027147;28;20416;-75
2023/12/23 11:40:52;;;;;;;;;;;;;;;9.92;100.00;100721.59;5021966;28;19925;-75
2023/12/23 11:43:18;;;;;;;;;;;;;;;9.84;100.00;100732.88;5026231;28;19931;-76
2023/12/23 11:45:46;;;;;;;;;;;;;;;9.79;100.00;100719.00;5024661;28;19917;-76
2023/12/23 11:48:11;;;;;;;;;;;;;;;9.84;100.00;100739.09;5026732;28;19920;-76
2023/12/23 11:50:37;;;;;;;;;;;;;;;9.84;100.00;100720.34;5006382;28;19921;-76
2023/12/23 11:53:02;;;;;;;;;;;;;;;9.95;100.00;100732.91;5017843;28;20389;-76
2023/12/23 11:55:27;;;;;;;;;;;;;;;10.00;100.00;100720.00;5012403;28;19999;-74
2023/12/23 11:57:52;;;;;;;;;;;;;;;10.00;100.00;100725.38;5025099;28;19924;-77
2023/12/23 12:00:18;;;;;;;;;;;;;;;10.06;100.00;100722.19;5024088;28;19987;-77
2023/12/23 12:02:43;;;;;;;;;;;;;;;9.84;100.00;100698.88;5026497;28;19999;-79
2023/12/23 12:05:08;;;;;;;;;;;;;;;9.94;100.00;100723.16;5025208;28;19921;-77
2023/12/23 12:07:34;;;;;;;;;;;;;;;9.99;100.00;100728.16;5025886;28;20027;-77
2023/12/23 12:09:59;;;;;;;;;;;;;;;9.99;100.00;100728.16;5027035;28;19924;-76
2023/12/23 12:12:24;;;;;;;;;;;;;;;10.00;100.00;100725.38;5021116;28;19928;-77
2023/12/23 12:14:49;;;;;;;;;;;;;;;9.98;100.00;100758.63;5019867;28;19921;-77
2023/12/23 12:17:15;;;;;;;;;;;;;;;9.99;100.00;100723.66;5008801;28;19960;-76
2023/12/23 12:19:40;;;;;;;;;;;;;;;10.03;100.00;100726.94;5007450;28;20024;-76
2023/12/23 12:22:05;;;;;;;;;;;;;;;9.95;100.00;100738.28;5027397;28;20351;-76
2023/12/23 12:24:32;;;;;;;;;;;;;;;10.03;100.00;100737.69;5028725;28;19928;-78
2023/12/23 12:26:57;;;;;;;;;;;;;;;9.94;100.00;100741.06;5009702;28;19932;-77